| time (UTC) | temp C | wind direction | speed KPH | gust KPH | rain 1hr cm | rain 24hr cm | rain mn cm | humidity % | barometer mb |
| 20260508105956 | 17 | 133 | 0.0 | 6.4 | 0.00 | 0.00 | 0.00 | 69 | |
| 20260508105453 | 17 | 194 | 1.6 | 6.4 | 0.00 | 0.00 | 0.00 | 69 | |
| 20260508104950 | 17 | 182 | 3.2 | 4.8 | 0.00 | 0.00 | 0.00 | 69 | |
| 20260508104447 | 17 | 251 | 3.2 | 4.8 | 0.00 | 0.00 | 0.00 | 69 | |
| 20260508103944 | 17 | 264 | 1.6 | 6.4 | 0.00 | 0.00 | 0.00 | 69 | |
| 20260508103441 | 17 | 171 | 4.8 | 9.7 | 0.00 | 0.00 | 0.00 | 69 | |
| 20260508102938 | 17 | 208 | 3.2 | 6.4 | 0.00 | 0.00 | 0.00 | 69 | |
| 20260508102437 | 18 | 144 | 1.6 | 4.8 | 0.00 | 0.00 | 0.00 | 69 | |
| 20260508101933 | 18 | 178 | 4.8 | 4.8 | 0.00 | 0.00 | 0.00 | 69 | |
| 20260508101431 | 18 | 171 | 1.6 | 4.8 | 0.00 | 0.00 | 0.00 | 68 | |
| 20260508100928 | 18 | 187 | 1.6 | 1.6 | 0.00 | 0.00 | 0.00 | 69 | |
| 20260508100426 | 18 | 331 | 1.6 | 3.2 | 0.00 | 0.00 | 0.00 | 68 | |
| 20260508095922 | 19 | 174 | 1.6 | 4.8 | 0.00 | 0.00 | 0.00 | 68 | |
| 20260508095420 | 19 | 140 | 0.0 | 3.2 | 0.00 | 0.00 | 0.00 | 68 | |
| 20260508094916 | 20 | 265 | 1.6 | 4.8 | 0.00 | 0.00 | 0.00 | 67 | |
| 20260508094413 | 20 | 17 | 1.6 | 3.2 | 0.00 | 0.00 | 0.00 | 67 | |
| 20260508093910 | 20 | 145 | 3.2 | 4.8 | 0.00 | 0.00 | 0.00 | 65 | |
| 20260508093408 | 21 | 249 | 1.6 | 4.8 | 0.00 | 0.00 | 0.00 | 62 | |
| 20260508092905 | 22 | 204 | 1.6 | 3.2 | 0.00 | 0.00 | 0.00 | 57 | |
| 20260508092403 | 22 | 291 | 0.0 | 3.2 | 0.00 | 0.00 | 0.00 | 54 | |
| 20260508091901 | 22 | 257 | 1.6 | 9.7 | 0.00 | 0.00 | 0.00 | 52 | |
| 20260508091357 | 22 | 178 | 6.4 | 11.3 | 0.00 | 0.00 | 0.00 | 50 | |
| 20260508090855 | 23 | 254 | 3.2 | 9.7 | 0.00 | 0.00 | 0.00 | 51 | |
| 20260508090354 | 23 | 168 | 3.2 | 4.8 | 0.00 | 0.00 | 0.00 | 50 | |
| 20260508085849 | 23 | 186 | 6.4 | 16.1 | 0.00 | 0.00 | 0.00 | 47 | |
| 20260508085346 | 23 | 221 | 9.7 | 16.1 | 0.00 | 0.00 | 0.00 | 47 | |
| 20260508084842 | 23 | 184 | 6.4 | 17.7 | 0.00 | 0.00 | 0.00 | 46 | |
| 20260508084339 | 24 | 197 | 9.7 | 16.1 | 0.00 | 0.00 | 0.00 | 45 | |
| 20260508083837 | 24 | 191 | 11.3 | 16.1 | 0.00 | 0.00 | 0.00 | 44 | |
| 20260508083334 | 24 | 181 | 12.9 | 16.1 | 0.00 | 0.00 | 0.00 | 44 | |
| 20260508082833 | 24 | 228 | 16.1 | 25.7 | 0.00 | 0.00 | 0.00 | 43 | |
| 20260508082331 | 24 | 217 | 3.2 | 12.9 | 0.00 | 0.00 | 0.00 | 45 | |
| 20260508081829 | 25 | 233 | 3.2 | 16.1 | 0.00 | 0.00 | 0.00 | 45 | |
| 20260508081325 | 24 | 257 | 8.0 | 24.1 | 0.00 | 0.00 | 0.00 | 43 | |
| 20260508080823 | 24 | 174 | 4.8 | 9.7 | 0.00 | 0.00 | 0.00 | 43 | |
| 20260508080320 | 24 | 198 | 9.7 | 12.9 | 0.00 | 0.00 | 0.00 | 43 | |
| 20260508075817 | 24 | 226 | 4.8 | 9.7 | 0.00 | 0.00 | 0.00 | 42 | |
| 20260508075313 | 24 | 282 | 1.6 | 9.7 | 0.00 | 0.00 | 0.00 | 43 | |
| 20260508074812 | 25 | 154 | 3.2 | 12.9 | 0.00 | 0.00 | 0.00 | 42 | |
| 20260508074308 | 24 | 177 | 6.4 | 20.9 | 0.00 | 0.00 | 0.00 | 41 | |
| 20260508073805 | 24 | 195 | 19.3 | 27.4 | 0.00 | 0.00 | 0.00 | 42 | |
| 20260508073303 | 24 | 206 | 6.4 | 17.7 | 0.00 | 0.00 | 0.00 | 45 | |
| 20260508072759 | 24 | 214 | 6.4 | 9.7 | 0.00 | 0.00 | 0.00 | 47 | |
| 20260508072256 | 24 | 199 | 8.0 | 12.9 | 0.00 | 0.00 | 0.00 | 45 | |
| 20260508071753 | 24 | 221 | 8.0 | 9.7 | 0.00 | 0.00 | 0.00 | 49 | |
| 20260508071252 | 24 | 184 | 9.7 | 12.9 | 0.00 | 0.00 | 0.00 | 49 | |
| 20260508070749 | 24 | 176 | 8.0 | 17.7 | 0.00 | 0.00 | 0.00 | 49 | |
| 20260508070248 | 24 | 169 | 17.7 | 20.9 | 0.00 | 0.00 | 0.00 | 53 | |
| 20260508065744 | 24 | 189 | 6.4 | 6.4 | 0.00 | 0.00 | 0.00 | 58 | |
| 20260508065242 | 24 | 195 | 8.0 | 11.3 | 0.00 | 0.00 | 0.00 | 58 | |
| 20260508064740 | 24 | 202 | 4.8 | 6.4 | 0.00 | 0.00 | 0.00 | 57 | |
| 20260508064238 | 23 | 238 | 1.6 | 9.7 | 0.00 | 0.00 | 0.00 | 57 | |
| 20260508063735 | 23 | 307 | 1.6 | 3.2 | 0.00 | 0.00 | 0.00 | 61 | |
| 20260508063233 | 23 | 317 | 0.0 | 0.0 | 0.00 | 0.00 | 0.00 | 65 | |
| 20260508062730 | 23 | 333 | 0.0 | 1.6 | 0.00 | 0.00 | 0.00 | 67 | |
| 20260508062227 | 24 | 9 | 1.6 | 3.2 | 0.00 | 0.00 | 0.00 | 67 | |
| 20260508061724 | 24 | 292 | 0.0 | 1.6 | 0.00 | 0.00 | 0.00 | 70 | |
| 20260508061221 | 23 | 294 | 0.0 | 0.0 | 0.00 | 0.00 | 0.00 | 71 | |
| 20260508060717 | 23 | 263 | 1.6 | 1.6 | 0.00 | 0.00 | 0.00 | 71 | |
| 20260508060215 | 23 | 265 | 0.0 | 1.6 | 0.00 | 0.00 | 0.00 | 73 | |
| 20260508055710 | 23 | 309 | 0.0 | 1.6 | 0.00 | 0.00 | 0.00 | 74 | |
| 20260508055208 | 23 | 347 | 1.6 | 1.6 | 0.00 | 0.00 | 0.00 | 75 | |
| 20260508054704 | 23 | 359 | 4.8 | 4.8 | 0.00 | 0.00 | 0.00 | 76 | |
| 20260508054202 | 22 | 344 | 0.0 | 1.6 | 0.00 | 0.00 | 0.00 | 77 | |
| 20260508053659 | 22 | 357 | 1.6 | 1.6 | 0.00 | 0.00 | 0.00 | 78 | |
| 20260508053156 | 22 | 12 | 0.0 | 0.0 | 0.00 | 0.00 | 0.00 | 78 | |
| 20260508052653 | 22 | 21 | 0.0 | 0.0 | 0.00 | 0.00 | 0.00 | 78 | |
| 20260508052150 | 22 | 359 | 0.0 | 1.6 | 0.00 | 0.00 | 0.00 | 78 | |
| 20260508051646 | 22 | 7 | 1.6 | 3.2 | 0.00 | 0.00 | 0.00 | 79 | |
| 20260508051142 | 22 | 351 | 3.2 | 6.4 | 0.00 | 0.00 | 0.00 | 79 | |
| 20260508050638 | 22 | 0 | 3.2 | 6.4 | 0.00 | 0.00 | 0.00 | 79 | |
| 20260508050136 | 22 | 356 | 6.4 | 6.4 | 0.00 | 0.00 | 0.00 | 79 | |
| 20260508045631 | 22 | 1 | 3.2 | 3.2 | 0.00 | 0.00 | 0.00 | 79 | |
| 20260508045130 | 22 | 0 | 0.0 | 3.2 | 0.00 | 0.00 | 0.00 | 78 | |
| 20260508044627 | 22 | 357 | 3.2 | 4.8 | 0.00 | 0.00 | 0.00 | 78 | |
| 20260508044123 | 22 | 0 | 4.8 | 6.4 | 0.00 | 0.00 | 0.00 | 79 | |
| 20260508043619 | 22 | 347 | 6.4 | 9.7 | 0.00 | 0.00 | 0.00 | 79 | |
| 20260508043117 | 22 | 357 | 4.8 | 6.4 | 0.00 | 0.00 | 0.00 | 78 | |
| 20260508042614 | 22 | 356 | 4.8 | 9.7 | 0.00 | 0.00 | 0.00 | 79 | |
| 20260508042111 | 22 | 358 | 8.0 | 9.7 | 0.00 | 0.00 | 0.00 | 78 | |
| 20260508041607 | 22 | 4 | 3.2 | 9.7 | 0.00 | 0.00 | 0.00 | 78 | |
| 20260508041104 | 22 | 347 | 4.8 | 6.4 | 0.00 | 0.00 | 0.00 | 78 | |
| 20260508040600 | 22 | 344 | 3.2 | 4.8 | 0.00 | 0.00 | 0.00 | 79 | |
| 20260508040058 | 22 | 356 | 3.2 | 4.8 | 0.00 | 0.00 | 0.00 | 77 | |
| 20260508035555 | 22 | 357 | 6.4 | 9.7 | 0.00 | 0.00 | 0.00 | 76 | |
| 20260508035052 | 22 | 328 | 3.2 | 6.4 | 0.00 | 0.00 | 0.00 | 77 | |
| 20260508034549 | 23 | 12 | 6.4 | 9.7 | 0.00 | 0.00 | 0.00 | 76 | |
| 20260508034046 | 23 | 5 | 4.8 | 4.8 | 0.00 | 0.00 | 0.00 | 76 | |
| 20260508033544 | 23 | 355 | 4.8 | 6.4 | 0.00 | 0.00 | 0.00 | 76 | |
| 20260508033042 | 23 | 346 | 1.6 | 4.8 | 0.00 | 0.00 | 0.00 | 76 | |
| 20260508032538 | 23 | 12 | 4.8 | 6.4 | 0.00 | 0.00 | 0.00 | 76 | |
| 20260508032036 | 23 | 9 | 0.0 | 3.2 | 0.00 | 0.00 | 0.00 | 76 | |
| 20260508031533 | 23 | 346 | 3.2 | 3.2 | 0.00 | 0.00 | 0.00 | 75 | |
| 20260508031028 | 23 | 347 | 0.0 | 1.6 | 0.00 | 0.00 | 0.00 | 76 | |
| 20260508030525 | 23 | 4 | 0.0 | 3.2 | 0.00 | 0.00 | 0.00 | 77 | |
| 20260508030024 | 23 | 156 | 1.6 | 3.2 | 0.00 | 0.00 | 0.00 | 78 | |
| 20260508025519 | 23 | 80 | 1.6 | 3.2 | 0.00 | 0.00 | 0.00 | 77 | |
| 20260508025016 | 23 | 199 | 3.2 | 4.8 | 0.00 | 0.00 | 0.00 | 75 | |
| 20260508024512 | 23 | 300 | 0.0 | 3.2 | 0.00 | 0.00 | 0.00 | 76 | |
| 20260508024009 | 23 | 182 | 1.6 | 3.2 | 0.00 | 0.00 | 0.00 | 77 | |
| 20260508023506 | 23 | 61 | 0.0 | 1.6 | 0.00 | 0.00 | 0.00 | 79 | |
| 20260508023003 | 23 | 6 | 3.2 | 4.8 | 0.00 | 0.00 | 0.00 | 78 | |
| 20260508022459 | 23 | 163 | 3.2 | 6.4 | 0.00 | 0.00 | 0.00 | 77 | |
| 20260508021955 | 22 | 330 | 0.0 | 3.2 | 0.00 | 0.00 | 0.00 | 80 | |
| 20260508021452 | 23 | 25 | 1.6 | 3.2 | 0.00 | 0.00 | 0.00 | 78 | |
| 20260508020948 | 23 | 326 | 0.0 | 0.0 | 0.00 | 0.00 | 0.00 | 77 | |
| 20260508020446 | 23 | 211 | 1.6 | 3.2 | 0.00 | 0.00 | 0.00 | 77 | |
| 20260508015942 | 22 | 18 | 0.0 | 1.6 | 0.00 | 0.00 | 0.00 | 78 | |
| 20260508015441 | 22 | 6 | 4.8 | 6.4 | 0.00 | 0.00 | 0.00 | 77 | |
| 20260508014937 | 22 | 3 | 1.6 | 3.2 | 0.00 | 0.00 | 0.00 | 78 | |
| 20260508014434 | 22 | 34 | 1.6 | 3.2 | 0.00 | 0.00 | 0.00 | 78 | |
| 20260508013929 | 22 | 5 | 3.2 | 3.2 | 0.00 | 0.00 | 0.00 | 78 | |
| 20260508013426 | 22 | 53 | 1.6 | 3.2 | 0.00 | 0.00 | 0.00 | 79 | |
| 20260508012923 | 22 | 68 | 0.0 | 1.6 | 0.00 | 0.00 | 0.00 | 78 | |
| 20260508012420 | 22 | 13 | 1.6 | 3.2 | 0.00 | 0.00 | 0.00 | 78 | |
| 20260508011918 | 22 | 31 | 0.0 | 1.6 | 0.00 | 0.00 | 0.00 | 79 | |
| 20260508011416 | 22 | 3 | 4.8 | 4.8 | 0.00 | 0.00 | 0.00 | 78 | |
| 20260508010913 | 22 | 348 | 3.2 | 6.4 | 0.00 | 0.00 | 0.00 | 79 | |
| 20260508010410 | 22 | 357 | 3.2 | 4.8 | 0.00 | 0.00 | 0.00 | 78 | |
| 20260508005907 | 22 | 9 | 0.0 | 1.6 | 0.00 | 0.00 | 0.00 | 81 | |
| 20260508005403 | 21 | 7 | 0.0 | 3.2 | 0.00 | 0.00 | 0.00 | 82 | |
| 20260508004900 | 21 | 14 | 0.0 | 1.6 | 0.00 | 0.00 | 0.00 | 82 | |
| 20260508004356 | 21 | 56 | 1.6 | 6.4 | 0.00 | 0.00 | 0.00 | 82 | |
| 20260508003853 | 21 | 52 | 3.2 | 4.8 | 0.00 | 0.00 | 0.00 | 83 | |
| 20260508003349 | 21 | 1 | 3.2 | 4.8 | 0.00 | 0.00 | 0.00 | 83 | |
| 20260508002847 | 21 | 46 | 1.6 | 3.2 | 0.00 | 0.00 | 0.00 | 84 | |
| 20260508002343 | 21 | 103 | 0.0 | 1.6 | 0.00 | 0.00 | 0.00 | 84 | |
| 20260508001840 | 20 | 305 | 0.0 | 1.6 | 0.00 | 0.00 | 0.00 | 85 | |
| 20260508001336 | 20 | 341 | 0.0 | 3.2 | 0.00 | 0.00 | 0.00 | 86 | |
| 20260508000832 | 20 | 206 | 1.6 | 3.2 | 0.00 | 0.00 | 0.00 | 86 | |
| 20260508000328 | 20 | 313 | 0.0 | 0.0 | 0.00 | 0.00 | 0.00 | 87 | |
| 20260507235825 | 20 | 215 | 0.0 | 1.6 | 0.00 | 0.00 | 0.00 | 87 | |
| 20260507235323 | 20 | 202 | 0.0 | 1.6 | 0.00 | 0.00 | 0.00 | 87 | |
| 20260507234820 | 20 | 185 | 4.8 | 4.8 | 0.00 | 0.00 | 0.00 | 88 | |
| 20260507234316 | 20 | 307 | 0.0 | 4.8 | 0.00 | 0.00 | 0.00 | 89 | |
| 20260507233813 | 20 | 192 | 3.2 | 3.2 | 0.00 | 0.00 | 0.00 | 89 | |
| 20260507233311 | 19 | 214 | 1.6 | 3.2 | 0.00 | 0.00 | 0.00 | 90 | |
| 20260507232809 | 19 | 285 | 0.0 | 0.0 | 0.00 | 0.00 | 0.00 | 91 | |
| 20260507232306 | 19 | 275 | 0.0 | 1.6 | 0.00 | 0.00 | 0.00 | 91 | |
| 20260507231801 | 19 | 202 | 1.6 | 3.2 | 0.00 | 0.00 | 0.00 | 91 | |
| 20260507231258 | 18 | 175 | 3.2 | 4.8 | 0.00 | 0.00 | 0.00 | 91 | |
| 20260507230754 | 18 | 189 | 1.6 | 3.2 | 0.00 | 0.00 | 0.00 | 91 | |
| 20260507230252 | 18 | 174 | 1.6 | 3.2 | 0.00 | 0.00 | 0.00 | 91 | |
| 20260507225752 | 19 | 189 | 3.2 | 3.2 | 0.00 | 0.00 | 0.00 | 91 | |
| 20260507225248 | 18 | 185 | 0.0 | 0.0 | 0.00 | 0.00 | 0.00 | 91 | |
| 20260507224744 | 19 | 186 | 0.0 | 0.0 | 0.00 | 0.00 | 0.00 | 91 | |
| 20260507224241 | 18 | 188 | 0.0 | 0.0 | 0.00 | 0.00 | 0.00 | 91 | |
| 20260507223737 | 18 | 170 | 1.6 | 3.2 | 0.00 | 0.00 | 0.00 | 91 | |
| 20260507223234 | 18 | 217 | 1.6 | 3.2 | 0.00 | 0.00 | 0.00 | 91 | |
| 20260507222731 | 18 | 180 | 3.2 | 4.8 | 0.00 | 0.00 | 0.00 | 91 | |
| 20260507222227 | 18 | 151 | 3.2 | 4.8 | 0.00 | 0.00 | 0.00 | 91 | |
| 20260507221724 | 18 | 197 | 1.6 | 3.2 | 0.00 | 0.00 | 0.00 | 91 | |
| 20260507221220 | 18 | 173 | 3.2 | 3.2 | 0.00 | 0.00 | 0.00 | 91 | |
| 20260507220717 | 18 | 252 | 1.6 | 1.6 | 0.00 | 0.00 | 0.00 | 91 | |
| 20260507220215 | 18 | 221 | 1.6 | 3.2 | 0.00 | 0.00 | 0.00 | 91 | |
| 20260507215711 | 18 | 176 | 3.2 | 4.8 | 0.00 | 0.00 | 0.00 | 91 | |
| 20260507215209 | 18 | 174 | 3.2 | 3.2 | 0.00 | 0.00 | 0.00 | 91 | |
| 20260507214706 | 18 | 204 | 1.6 | 3.2 | 0.00 | 0.00 | 0.00 | 91 | |
| 20260507214202 | 18 | 230 | 0.0 | 1.6 | 0.00 | 0.00 | 0.00 | 92 | |
| 20260507213658 | 18 | 229 | 0.0 | 0.0 | 0.00 | 0.00 | 0.00 | 92 | |
| 20260507213156 | 18 | 229 | 1.6 | 1.6 | 0.00 | 0.00 | 0.00 | 92 | |
| 20260507212651 | 18 | 229 | 0.0 | 0.0 | 0.00 | 0.00 | 0.00 | 93 | |
| 20260507212148 | 18 | 230 | 0.0 | 1.6 | 0.00 | 0.00 | 0.00 | 93 | |
| 20260507211645 | 18 | 229 | 0.0 | 1.6 | 0.00 | 0.00 | 0.00 | 93 | |
| 20260507211141 | 18 | 221 | 3.2 | 3.2 | 0.00 | 0.00 | 0.00 | 93 | |
| 20260507210639 | 18 | 71 | 1.6 | 1.6 | 0.00 | 0.00 | 0.00 | 93 | |
| 20260507210135 | 18 | 6 | 0.0 | 0.0 | 0.00 | 0.00 | 0.00 | 93 | |
| 20260507205632 | 18 | 5 | 0.0 | 0.0 | 0.00 | 0.00 | 0.00 | 94 | |
| 20260507205128 | 18 | 5 | 0.0 | 0.0 | 0.00 | 0.00 | 0.00 | 94 | |
| 20260507204624 | 18 | 132 | 0.0 | 0.0 | 0.00 | 0.00 | 0.00 | 94 | |
| 20260507204122 | 17 | 132 | 0.0 | 0.0 | 0.00 | 0.00 | 0.00 | 94 | |
| 20260507203620 | 17 | 133 | 1.6 | 3.2 | 0.00 | 0.00 | 0.00 | 94 | |
| 20260507203117 | 17 | 194 | 3.2 | 3.2 | 0.00 | 0.00 | 0.00 | 94 | |
| 20260507202613 | 17 | 230 | 0.0 | 1.6 | 0.00 | 0.00 | 0.00 | 94 | |
| 20260507202109 | 17 | 0 | 0.0 | 1.6 | 0.00 | 0.00 | 0.00 | 94 | |
| 20260507201604 | 17 | 0 | 3.2 | 4.8 | 0.00 | 0.00 | 0.00 | 94 | |
| 20260507201102 | 17 | 12 | 1.6 | 3.2 | 0.00 | 0.00 | 0.00 | 93 | |
| 20260507200557 | 17 | 355 | 3.2 | 3.2 | 0.00 | 0.00 | 0.00 | 93 | |
| 20260507200053 | 17 | 349 | 1.6 | 1.6 | 0.00 | 0.00 | 0.00 | 93 | |
| 20260507195551 | 17 | 135 | 0.0 | 1.6 | 0.00 | 0.00 | 0.00 | 93 | |
| 20260507195048 | 17 | 48 | 0.0 | 1.6 | 0.00 | 0.00 | 0.00 | 93 | |
| 20260507194544 | 17 | 76 | 0.0 | 3.2 | 0.00 | 0.00 | 0.00 | 93 | |
| 20260507194040 | 18 | 7 | 0.0 | 3.2 | 0.00 | 0.00 | 0.00 | 93 | |
| 20260507193537 | 18 | 322 | 0.0 | 0.0 | 0.00 | 0.00 | 0.00 | 93 | |
| 20260507193034 | 18 | 230 | 3.2 | 4.8 | 0.00 | 0.00 | 0.00 | 93 | |
| 20260507192530 | 18 | 315 | 0.0 | 1.6 | 0.00 | 0.00 | 0.00 | 93 | |
| 20260507192027 | 18 | 307 | 0.0 | 1.6 | 0.00 | 0.00 | 0.00 | 93 | |
| 20260507191523 | 18 | 330 | 0.0 | 1.6 | 0.00 | 0.00 | 0.00 | 93 | |
| 20260507191020 | 18 | 261 | 0.0 | 1.6 | 0.00 | 0.00 | 0.00 | 93 | |
| 20260507190517 | 18 | 316 | 0.0 | 1.6 | 0.00 | 0.00 | 0.00 | 92 | |
| 20260507190016 | 18 | 279 | 0.0 | 0.0 | 0.00 | 0.00 | 0.00 | 92 | |
| 20260507185513 | 18 | 234 | 0.0 | 3.2 | 0.00 | 0.00 | 0.00 | 92 | |
| 20260507185010 | 17 | 221 | 1.6 | 3.2 | 0.00 | 0.00 | 0.00 | 93 | |
| 20260507184509 | 18 | 284 | 0.0 | 0.0 | 0.00 | 0.00 | 0.00 | 93 | |
| 20260507184006 | 18 | 274 | 0.0 | 0.0 | 0.00 | 0.00 | 0.00 | 93 | |
| 20260507183502 | 18 | 282 | 0.0 | 0.0 | 0.00 | 0.00 | 0.00 | 93 | |
| 20260507182959 | 18 | 282 | 0.0 | 0.0 | 0.00 | 0.00 | 0.00 | 93 | |
| 20260507182455 | 17 | 248 | 1.6 | 1.6 | 0.00 | 0.00 | 0.00 | 93 | |
| 20260507181951 | 17 | 277 | 0.0 | 1.6 | 0.00 | 0.00 | 0.00 | 93 | |
| 20260507181448 | 17 | 262 | 1.6 | 1.6 | 0.00 | 0.00 | 0.00 | 92 | |
| 20260507180944 | 17 | 288 | 0.0 | 0.0 | 0.00 | 0.00 | 0.00 | 92 | |
| 20260507180441 | 17 | 288 | 0.0 | 0.0 | 0.00 | 0.00 | 0.00 | 92 | |
| 20260507175937 | 17 | 287 | 0.0 | 0.0 | 0.00 | 0.00 | 0.00 | 92 | |
| 20260507175434 | 18 | 287 | 0.0 | 0.0 | 0.00 | 0.00 | 0.00 | 92 | |
| 20260507174932 | 18 | 285 | 0.0 | 1.6 | 0.00 | 0.00 | 0.00 | 92 | |
| 20260507174429 | 18 | 285 | 0.0 | 0.0 | 0.00 | 0.00 | 0.00 | 92 | |
| 20260507173926 | 18 | 245 | 1.6 | 1.6 | 0.00 | 0.00 | 0.00 | 92 | |
| 20260507173423 | 18 | 211 | 1.6 | 3.2 | 0.00 | 0.00 | 0.00 | 92 | |
| 20260507172920 | 17 | 226 | 3.2 | 3.2 | 0.00 | 0.00 | 0.00 | 92 | |
| 20260507172416 | 17 | 224 | 0.0 | 0.0 | 0.00 | 0.00 | 0.00 | 91 | |
| 20260507171912 | 17 | 224 | 0.0 | 0.0 | 0.00 | 0.00 | 0.00 | 91 | |
| 20260507171409 | 17 | 224 | 0.0 | 0.0 | 0.00 | 0.00 | 0.00 | 91 | |
| 20260507170906 | 18 | 224 | 0.0 | 0.0 | 0.00 | 0.00 | 0.00 | 91 | |
| 20260507170403 | 18 | 223 | 0.0 | 0.0 | 0.00 | 0.00 | 0.00 | 90 | |
| 20260507165859 | 18 | 223 | 0.0 | 0.0 | 0.00 | 0.00 | 0.00 | 90 | |
| 20260507165354 | 18 | 223 | 0.0 | 0.0 | 0.00 | 0.00 | 0.00 | 90 | |
| 20260507164851 | 18 | 223 | 0.0 | 0.0 | 0.00 | 0.00 | 0.00 | 90 | |
| 20260507164348 | 18 | 223 | 0.0 | 1.6 | 0.00 | 0.00 | 0.00 | 89 | |
| 20260507163845 | 18 | 223 | 1.6 | 1.6 | 0.00 | 0.00 | 0.00 | 89 | |
| 20260507163343 | 18 | 224 | 0.0 | 0.0 | 0.00 | 0.00 | 0.00 | 89 | |
| 20260507162839 | 18 | 223 | 0.0 | 1.6 | 0.00 | 0.00 | 0.00 | 89 | |
| 20260507162334 | 18 | 228 | 1.6 | 1.6 | 0.00 | 0.00 | 0.00 | 89 | |
| 20260507161832 | 18 | 229 | 1.6 | 3.2 | 0.00 | 0.00 | 0.00 | 88 | |
| 20260507161328 | 18 | 294 | 0.0 | 3.2 | 0.00 | 0.00 | 0.00 | 89 | |
| 20260507160825 | 18 | 229 | 4.8 | 4.8 | 0.00 | 0.00 | 0.00 | 89 | |
| 20260507160321 | 18 | 290 | 0.0 | 0.0 | 0.00 | 0.00 | 0.00 | 88 | |
| 20260507155818 | 18 | 290 | 0.0 | 1.6 | 0.00 | 0.00 | 0.00 | 88 | |
| 20260507155313 | 18 | 187 | 0.0 | 1.6 | 0.00 | 0.00 | 0.00 | 88 | |
| 20260507154810 | 18 | 188 | 1.6 | 3.2 | 0.00 | 0.00 | 0.00 | 88 | |
| 20260507154307 | 18 | 189 | 4.8 | 4.8 | 0.00 | 0.00 | 0.00 | 89 | |
| 20260507153804 | 18 | 169 | 3.2 | 3.2 | 0.00 | 0.00 | 0.00 | 89 | |
| 20260507153300 | 18 | 235 | 1.6 | 1.6 | 0.00 | 0.00 | 0.00 | 89 | |
| 20260507152757 | 18 | 235 | 0.0 | 1.6 | 0.00 | 0.00 | 0.00 | 89 | |
| 20260507152253 | 18 | 243 | 1.6 | 1.6 | 0.00 | 0.00 | 0.00 | 89 | |
| 20260507151749 | 18 | 251 | 0.0 | 1.6 | 0.00 | 0.00 | 0.00 | 88 | |
| 20260507151246 | 18 | 308 | 0.0 | 1.6 | 0.00 | 0.00 | 0.00 | 88 | |
| 20260507150743 | 18 | 306 | 0.0 | 0.0 | 0.00 | 0.00 | 0.00 | 88 | |
| 20260507150239 | 18 | 27 | 0.0 | 0.0 | 0.00 | 0.00 | 0.00 | 87 | |
| 20260507145735 | 18 | 31 | 0.0 | 0.0 | 0.00 | 0.00 | 0.00 | 87 | |
| 20260507145232 | 18 | 97 | 0.0 | 1.6 | 0.00 | 0.00 | 0.00 | 88 | |
| 20260507144729 | 18 | 157 | 1.6 | 1.6 | 0.00 | 0.00 | 0.00 | 88 | |
| 20260507144227 | 18 | 212 | 1.6 | 1.6 | 0.00 | 0.00 | 0.00 | 87 | |
| 20260507143723 | 18 | 345 | 0.0 | 0.0 | 0.00 | 0.00 | 0.00 | 87 | |
| 20260507143220 | 18 | 346 | 0.0 | 1.6 | 0.00 | 0.00 | 0.00 | 86 | |
| 20260507142716 | 19 | 239 | 0.0 | 0.0 | 0.00 | 0.00 | 0.00 | 86 | |
| 20260507142213 | 19 | 225 | 0.0 | 1.6 | 0.00 | 0.00 | 0.00 | 85 | |
| 20260507141709 | 19 | 219 | 3.2 | 3.2 | 0.00 | 0.00 | 0.00 | 86 | |
| 20260507141206 | 19 | 219 | 0.0 | 1.6 | 0.00 | 0.00 | 0.00 | 85 | |
| 20260507140702 | 19 | 168 | 1.6 | 3.2 | 0.00 | 0.00 | 0.00 | 85 | |
| 20260507140200 | 19 | 167 | 1.6 | 1.6 | 0.00 | 0.00 | 0.00 | 84 | |
| 20260507135657 | 19 | 184 | 1.6 | 3.2 | 0.00 | 0.00 | 0.00 | 84 | |
| 20260507135154 | 19 | 265 | 0.0 | 1.6 | 0.00 | 0.00 | 0.00 | 83 | |
| 20260507134650 | 19 | 238 | 1.6 | 1.6 | 0.00 | 0.00 | 0.00 | 83 | |
| 20260507134147 | 19 | 227 | 1.6 | 3.2 | 0.00 | 0.00 | 0.00 | 83 | |
| 20260507133643 | 19 | 181 | 1.6 | 4.8 | 0.00 | 0.00 | 0.00 | 84 | |
| 20260507133140 | 19 | 170 | 1.6 | 3.2 | 0.00 | 0.00 | 0.00 | 84 | |
| 20260507132638 | 19 | 75 | 1.6 | 3.2 | 0.00 | 0.00 | 0.00 | 83 | |
| 20260507132133 | 20 | 358 | 0.0 | 3.2 | 0.00 | 0.00 | 0.00 | 83 | |
| 20260507131630 | 20 | 14 | 0.0 | 3.2 | 0.00 | 0.00 | 0.00 | 83 | |
| 20260507131128 | 20 | 65 | 0.0 | 1.6 | 0.00 | 0.00 | 0.00 | 83 | |
| 20260507130624 | 20 | 70 | 0.0 | 1.6 | 0.00 | 0.00 | 0.00 | 83 | |
| 20260507130123 | 20 | 180 | 4.8 | 4.8 | 0.00 | 0.00 | 0.00 | 83 | |
| 20260507125621 | 20 | 166 | 3.2 | 4.8 | 0.00 | 0.00 | 0.00 | 83 | |
| 20260507125118 | 20 | 184 | 4.8 | 6.4 | 0.00 | 0.00 | 0.00 | 82 | |
| 20260507124614 | 20 | 174 | 4.8 | 6.4 | 0.00 | 0.00 | 0.00 | 82 | |
| 20260507124112 | 20 | 183 | 4.8 | 6.4 | 0.00 | 0.00 | 0.00 | 82 | |
| 20260507123610 | 20 | 166 | 3.2 | 4.8 | 0.00 | 0.00 | 0.00 | 82 | |
| 20260507123107 | 20 | 126 | 1.6 | 3.2 | 0.00 | 0.00 | 0.00 | 82 | |
| 20260507122602 | 20 | 129 | 1.6 | 3.2 | 0.00 | 0.00 | 0.00 | 82 | |
| 20260507122058 | 20 | 172 | 3.2 | 4.8 | 0.00 | 0.00 | 0.00 | 82 | |
| 20260507121554 | 20 | 173 | 1.6 | 4.8 | 0.00 | 0.00 | 0.00 | 82 | |
| 20260507121050 | 20 | 160 | 1.6 | 4.8 | 0.00 | 0.00 | 0.00 | 82 | |
| 20260507120546 | 20 | 173 | 1.6 | 3.2 | 0.00 | 0.00 | 0.00 | 82 | |
| 20260507120043 | 20 | 162 | 1.6 | 3.2 | 0.00 | 0.00 | 0.00 | 82 | |
| 20260507115540 | 20 | 169 | 1.6 | 3.2 | 0.00 | 0.00 | 0.00 | 82 | |
| 20260507115035 | 20 | 173 | 4.8 | 6.4 | 0.00 | 0.00 | 0.00 | 81 | |
| 20260507114531 | 20 | 180 | 1.6 | 4.8 | 0.00 | 0.00 | 0.00 | 81 | |
| 20260507114029 | 20 | 155 | 6.4 | 6.4 | 0.00 | 0.00 | 0.00 | 80 | |
| 20260507113526 | 20 | 102 | 1.6 | 4.8 | 0.00 | 0.00 | 0.00 | 80 | |
| 20260507113024 | 20 | 151 | 4.8 | 4.8 | 0.00 | 0.00 | 0.00 | 80 | |
| 20260507112521 | 20 | 190 | 4.8 | 4.8 | 0.00 | 0.00 | 0.00 | 80 | |
| 20260507112017 | 20 | 151 | 4.8 | 4.8 | 0.00 | 0.00 | 0.00 | 79 | |
| 20260507111515 | 21 | 141 | 6.4 | 9.7 | 0.00 | 0.00 | 0.00 | 79 | |
| 20260507111011 | 21 | 175 | 3.2 | 3.2 | 0.00 | 0.00 | 0.00 | 78 | |
| 20260507110508 | 21 | 141 | 6.4 | 6.4 | 0.00 | 0.00 | 0.00 | 79 |